createdAt,value
2018-12-09T00:00:08.530Z,2.50
2018-12-09T00:01:09.045Z,0.80
2018-12-09T00:03:09.192Z,0.80
2018-12-09T00:04:09.823Z,2.20
2018-12-09T00:05:09.627Z,1.60
2018-12-09T00:06:09.916Z,2.20
2018-12-09T00:07:10.240Z,2.00
2018-12-09T00:08:10.711Z,2.20
2018-12-09T00:10:10.609Z,2.60
2018-12-09T00:11:11.243Z,1.80
2018-12-09T00:12:11.022Z,2.80
2018-12-09T00:13:11.347Z,2.20
2018-12-09T00:14:11.614Z,2.40
2018-12-09T00:15:12.086Z,3.00
2018-12-09T00:16:12.093Z,1.10
2018-12-09T00:17:12.153Z,1.90
2018-12-09T00:18:12.535Z,1.60
2018-12-09T00:19:12.897Z,1.40
2018-12-09T00:20:13.344Z,2.10
2018-12-09T00:21:13.717Z,2.40
2018-12-09T00:22:14.234Z,2.20
2018-12-09T00:23:14.591Z,2.20
2018-12-09T00:24:14.839Z,2.70
2018-12-09T00:25:15.476Z,1.70
2018-12-09T00:26:15.297Z,1.70
2018-12-09T00:27:15.633Z,5.30
2018-12-09T00:28:16.062Z,4.90
2018-12-09T00:29:16.371Z,2.40
2018-12-09T00:30:16.971Z,2.10
2018-12-09T00:31:16.993Z,3.00
2018-12-09T00:32:17.004Z,4.40
2018-12-09T00:33:20.219Z,2.80
2018-12-09T00:34:17.172Z,4.10
2018-12-09T00:35:17.466Z,5.00
2018-12-09T00:36:17.757Z,5.00
2018-12-09T00:37:18.170Z,4.20
2018-12-09T00:38:21.965Z,6.10
2018-12-09T00:39:19.540Z,2.90
2018-12-09T00:40:19.945Z,5.10
2018-12-09T00:41:20.337Z,3.70
2018-12-09T00:42:20.682Z,3.90
2018-12-09T00:43:20.970Z,6.80
2018-12-09T00:44:21.139Z,6.50
2018-12-09T00:45:21.225Z,3.70
2018-12-09T00:46:21.330Z,6.80
2018-12-09T00:47:21.471Z,9.30
2018-12-09T00:48:21.614Z,6.70
2018-12-09T00:49:21.719Z,8.70
2018-12-09T00:50:21.798Z,5.90
2018-12-09T00:51:21.655Z,9.80
2018-12-09T00:52:22.232Z,6.40
2018-12-09T00:53:22.329Z,7.40
2018-12-09T00:54:22.524Z,7.00
2018-12-09T00:55:22.613Z,8.10
2018-12-09T00:56:22.842Z,8.80
2018-12-09T00:57:23.694Z,8.80
2018-12-09T00:58:23.527Z,5.80
2018-12-09T00:59:23.795Z,8.10
2018-12-09T01:00:23.716Z,6.40
2018-12-09T01:01:24.264Z,6.20
2018-12-09T01:02:24.541Z,10.40
2018-12-09T01:03:24.468Z,8.60
2018-12-09T01:04:24.852Z,10.10
2018-12-09T01:05:25.138Z,7.60
2018-12-09T01:06:25.422Z,7.50
2018-12-09T01:07:25.692Z,6.60
2018-12-09T01:08:26.020Z,6.40
2018-12-09T01:09:26.325Z,5.50
2018-12-09T01:10:26.607Z,8.30
2018-12-09T01:11:26.948Z,4.40
2018-12-09T01:12:27.219Z,6.70
2018-12-09T01:13:27.849Z,5.10
2018-12-09T01:14:27.699Z,9.10
2018-12-09T01:15:27.972Z,9.50
2018-12-09T01:16:28.447Z,7.00
2018-12-09T01:17:28.738Z,5.90
2018-12-09T01:18:29.101Z,9.80
2018-12-09T01:19:29.551Z,7.70
2018-12-09T01:20:29.885Z,8.10
2018-12-09T01:21:30.162Z,3.60
2018-12-09T01:22:30.498Z,6.70
2018-12-09T01:23:30.778Z,8.70
2018-12-09T01:24:31.066Z,5.90
2018-12-09T01:25:31.350Z,6.40
2018-12-09T01:26:31.624Z,9.00
2018-12-09T01:27:31.891Z,8.00
2018-12-09T01:29:32.179Z,9.60
2018-12-09T01:30:32.466Z,10.20
2018-12-09T01:31:32.799Z,9.00
2018-12-09T01:32:33.391Z,6.60
2018-12-09T01:34:33.487Z,10.70
2018-12-09T01:35:33.598Z,8.40
2018-12-09T01:36:33.671Z,6.50
2018-12-09T01:37:33.941Z,7.30
2018-12-09T01:38:34.119Z,7.40
2018-12-09T01:39:34.289Z,8.50
2018-12-09T01:40:34.521Z,7.60
2018-12-09T01:41:34.743Z,9.40
2018-12-09T01:42:34.891Z,9.90
2018-12-09T01:43:35.117Z,9.30
2018-12-09T01:44:35.309Z,9.20
2018-12-09T01:45:35.454Z,9.20
2018-12-09T01:46:35.577Z,10.20
2018-12-09T01:47:35.762Z,6.40
2018-12-09T01:48:35.851Z,7.70
2018-12-09T01:49:36.015Z,11.20
2018-12-09T01:50:36.084Z,9.50
2018-12-09T01:51:36.166Z,10.00
2018-12-09T01:52:36.284Z,8.60
2018-12-09T01:53:36.414Z,10.30
2018-12-09T01:54:36.850Z,9.80
2018-12-09T01:55:37.022Z,11.90
2018-12-09T01:56:37.140Z,9.50
2018-12-09T01:57:37.267Z,12.30
2018-12-09T01:58:37.335Z,10.70
2018-12-09T01:59:37.420Z,8.40
2018-12-09T02:00:37.488Z,9.30
2018-12-09T02:01:37.623Z,12.00
2018-12-09T02:02:37.702Z,8.10
2018-12-09T02:03:37.763Z,11.80
2018-12-09T02:04:37.830Z,10.80
2018-12-09T02:05:37.912Z,9.00
2018-12-09T02:06:37.965Z,10.40
2018-12-09T02:07:38.045Z,13.20
2018-12-09T02:08:38.115Z,13.30
2018-12-09T02:09:38.193Z,12.20
2018-12-09T02:10:38.280Z,10.80
2018-12-09T02:11:38.352Z,11.10
2018-12-09T02:12:38.430Z,9.40
2018-12-09T02:13:38.527Z,9.40
2018-12-09T02:14:38.633Z,13.60
2018-12-09T02:15:39.006Z,11.10
2018-12-09T02:16:39.056Z,10.30
2018-12-09T02:17:39.188Z,10.20
2018-12-09T02:18:39.187Z,10.00
2018-12-09T02:19:39.205Z,14.60
2018-12-09T02:20:39.171Z,7.90
2018-12-09T02:21:39.527Z,12.30
2018-12-09T02:22:39.806Z,13.00
2018-12-09T02:23:40.084Z,13.20
2018-12-09T02:24:40.587Z,11.40
2018-12-09T02:25:40.844Z,12.00
2018-12-09T02:26:41.115Z,15.00
2018-12-09T02:27:41.404Z,11.40
2018-12-09T02:28:41.680Z,7.40
2018-12-09T02:29:42.104Z,15.80
2018-12-09T02:30:42.377Z,10.30
2018-12-09T02:31:42.673Z,7.30
2018-12-09T02:32:43.069Z,8.30
2018-12-09T02:33:43.343Z,10.10
2018-12-09T02:34:43.616Z,9.70
2018-12-09T02:35:44.047Z,6.80
2018-12-09T02:36:44.285Z,10.50
2018-12-09T02:37:44.564Z,7.50
2018-12-09T02:38:44.850Z,7.30
2018-12-09T02:39:45.108Z,6.20
2018-12-09T02:40:45.394Z,6.30
2018-12-09T02:41:45.658Z,6.50
2018-12-09T02:42:45.963Z,7.90
2018-12-09T02:43:46.221Z,4.40
2018-12-09T02:44:46.505Z,6.00
2018-12-09T02:45:46.814Z,2.80
2018-12-09T02:46:47.344Z,4.50
2018-12-09T02:47:47.130Z,5.40
2018-12-09T02:48:47.410Z,6.00
2018-12-09T02:49:47.683Z,3.60
2018-12-09T02:50:48.233Z,6.00
2018-12-09T02:51:48.097Z,3.40
2018-12-09T02:52:48.709Z,3.60
2018-12-09T02:53:48.790Z,2.60
2018-12-09T02:54:48.918Z,2.60
2018-12-09T02:56:49.039Z,2.90
2018-12-09T02:57:49.198Z,1.90
2018-12-09T02:58:49.331Z,3.40
2018-12-09T02:59:49.454Z,2.50
2018-12-09T03:00:49.560Z,4.20
2018-12-09T03:01:49.695Z,3.40
2018-12-09T03:02:49.828Z,2.20
2018-12-09T03:03:50.008Z,2.60
2018-12-09T03:04:50.287Z,1.40
2018-12-09T03:05:50.442Z,1.40
2018-12-09T03:06:50.576Z,2.40
2018-12-09T03:07:50.713Z,3.80
2018-12-09T03:08:50.863Z,5.40
2018-12-09T03:09:51.032Z,3.20
2018-12-09T03:10:51.075Z,3.40
2018-12-09T03:11:51.136Z,3.50
2018-12-09T03:12:51.204Z,2.70
2018-12-09T03:13:51.280Z,2.80
2018-12-09T03:14:51.373Z,4.40
2018-12-09T03:15:51.436Z,6.80
2018-12-09T03:16:51.493Z,2.40
2018-12-09T03:17:51.657Z,4.50
2018-12-09T03:18:51.454Z,4.60
2018-12-09T03:19:52.068Z,4.10
2018-12-09T03:20:52.152Z,5.00
2018-12-09T03:21:52.244Z,3.00
2018-12-09T03:22:52.324Z,3.10
2018-12-09T03:23:52.409Z,3.80
2018-12-09T03:24:52.486Z,3.20
2018-12-09T03:25:52.557Z,2.60
2018-12-09T03:26:52.677Z,3.70
2018-12-09T03:27:52.741Z,3.10
2018-12-09T03:28:52.837Z,2.20
2018-12-09T03:29:52.900Z,3.60
2018-12-09T03:30:53.002Z,1.90
2018-12-09T03:31:53.063Z,3.00
2018-12-09T03:32:53.131Z,2.50
2018-12-09T03:33:53.192Z,4.30
2018-12-09T03:34:53.273Z,5.80
2018-12-09T03:35:53.351Z,3.00
2018-12-09T03:36:53.441Z,4.70
2018-12-09T03:37:53.523Z,5.00
2018-12-09T03:38:53.625Z,4.40
2018-12-09T03:39:53.706Z,3.70
2018-12-09T03:40:53.781Z,4.30
2018-12-09T03:41:53.814Z,3.50
2018-12-09T03:42:53.898Z,3.30
2018-12-09T03:43:53.916Z,3.00
2018-12-09T03:45:53.950Z,1.90
2018-12-09T03:46:53.915Z,5.20
2018-12-09T03:47:54.135Z,3.20
2018-12-09T03:48:54.705Z,4.30
2018-12-09T03:49:54.737Z,3.20
2018-12-09T03:50:55.001Z,5.60
2018-12-09T03:52:55.303Z,2.60
2018-12-09T03:53:55.612Z,5.60
2018-12-09T03:54:55.891Z,4.20
2018-12-09T03:55:56.451Z,4.00
2018-12-09T03:56:56.304Z,6.00
2018-12-09T03:57:56.672Z,4.10
2018-12-09T03:58:57.267Z,4.70
2018-12-09T03:59:57.177Z,3.90
2018-12-09T04:00:57.626Z,5.70
2018-12-09T04:01:57.965Z,4.90
2018-12-09T04:02:58.244Z,6.00
2018-12-09T04:03:58.687Z,5.60
2018-12-09T04:04:58.958Z,4.20
2018-12-09T04:05:59.237Z,3.70
2018-12-09T04:06:59.775Z,4.00
2018-12-09T04:07:59.817Z,5.60
2018-12-09T04:08:59.613Z,4.40
2018-12-09T04:09:59.876Z,4.70
2018-12-09T04:11:00.195Z,5.00
2018-12-09T04:12:00.689Z,4.10
2018-12-09T04:13:01.238Z,3.60
2018-12-09T04:14:01.341Z,5.30
2018-12-09T04:15:01.254Z,4.20
2018-12-09T04:16:01.143Z,3.00
2018-12-09T04:17:01.747Z,2.80
2018-12-09T04:18:01.785Z,5.10
2018-12-09T04:19:01.907Z,4.00
2018-12-09T04:20:02.077Z,3.40
2018-12-09T04:21:02.416Z,2.20
2018-12-09T04:22:02.491Z,4.00
2018-12-09T04:23:02.606Z,3.50
2018-12-09T04:24:02.822Z,3.50
2018-12-09T04:25:02.932Z,3.00
2018-12-09T04:26:02.737Z,1.50
2018-12-09T04:27:03.504Z,3.10
2018-12-09T04:28:03.667Z,2.00
2018-12-09T04:29:03.816Z,4.40
2018-12-09T04:30:03.978Z,5.40
2018-12-09T04:31:04.041Z,2.80
2018-12-09T04:32:04.205Z,4.10
2018-12-09T04:33:04.266Z,3.30
2018-12-09T04:34:04.418Z,3.10
2018-12-09T04:35:04.590Z,4.00
2018-12-09T04:36:04.572Z,1.50
2018-12-09T04:37:08.434Z,2.20
2018-12-09T04:38:08.505Z,4.50
2018-12-09T04:39:08.384Z,4.60
2018-12-09T04:40:08.950Z,1.90
2018-12-09T04:41:09.017Z,2.00
2018-12-09T04:42:08.802Z,3.50
2018-12-09T04:43:09.095Z,3.50
2018-12-09T04:44:09.591Z,5.90
2018-12-09T04:45:10.001Z,5.80
2018-12-09T04:46:10.428Z,5.00
2018-12-09T04:47:10.702Z,2.50
2018-12-09T04:48:10.976Z,4.20
2018-12-09T04:49:11.216Z,4.40
2018-12-09T04:50:11.600Z,3.10
2018-12-09T04:51:12.047Z,2.20
2018-12-09T04:52:12.360Z,3.10
2018-12-09T04:53:12.644Z,3.00
2018-12-09T04:54:12.974Z,3.20
2018-12-09T04:55:13.494Z,6.70
2018-12-09T04:56:13.513Z,3.50
2018-12-09T04:58:13.930Z,2.10
2018-12-09T04:59:14.183Z,3.50
2018-12-09T05:00:14.395Z,5.50
2018-12-09T05:01:14.457Z,6.00
2018-12-09T05:03:14.737Z,4.00
2018-12-09T05:04:15.102Z,2.20
2018-12-09T05:05:15.692Z,3.20
2018-12-09T05:06:15.584Z,2.10
2018-12-09T05:07:15.922Z,1.80
2018-12-09T05:08:16.333Z,4.00
2018-12-09T05:09:16.606Z,3.00
2018-12-09T05:10:17.209Z,2.00
2018-12-09T05:11:17.110Z,2.90
2018-12-09T05:12:17.408Z,1.90
2018-12-09T05:13:17.949Z,4.00
2018-12-09T05:14:17.715Z,1.40
2018-12-09T05:15:18.096Z,2.80
2018-12-09T05:16:18.720Z,2.80
2018-12-09T05:17:18.853Z,5.40
2018-12-09T05:18:18.924Z,2.10
2018-12-09T05:19:19.042Z,1.40
2018-12-09T05:20:19.141Z,2.80
2018-12-09T05:21:19.260Z,3.40
2018-12-09T05:22:19.384Z,1.40
2018-12-09T05:23:19.491Z,4.80
2018-12-09T05:24:19.609Z,2.00
2018-12-09T05:25:19.761Z,2.20
2018-12-09T05:26:19.869Z,1.80
2018-12-09T05:27:20.371Z,3.50
2018-12-09T05:28:20.531Z,3.50
2018-12-09T05:29:20.666Z,3.20
2018-12-09T05:30:20.822Z,3.40
2018-12-09T05:31:20.941Z,5.80
2018-12-09T05:32:21.039Z,4.20
2018-12-09T05:33:21.105Z,5.20
2018-12-09T05:34:21.193Z,6.90
2018-12-09T05:35:21.249Z,7.10
2018-12-09T05:36:21.367Z,5.60
2018-12-09T05:37:21.418Z,9.80
2018-12-09T05:38:21.497Z,10.20
2018-12-09T05:39:21.593Z,11.70
2018-12-09T05:40:21.660Z,14.50
2018-12-09T05:41:21.797Z,18.10
2018-12-09T05:42:21.909Z,24.00
2018-12-09T05:43:22.037Z,24.20
2018-12-09T05:44:22.136Z,26.90
2018-12-09T05:45:22.224Z,31.70
2018-12-09T05:46:22.328Z,40.30
2018-12-09T05:47:22.703Z,38.30
2018-12-09T05:48:22.786Z,43.10
2018-12-09T05:49:22.854Z,47.20
2018-12-09T05:50:22.927Z,49.90
2018-12-09T05:51:22.996Z,47.70
2018-12-09T05:52:23.102Z,53.50
2018-12-09T05:54:23.197Z,57.50
2018-12-09T05:55:23.270Z,56.00
2018-12-09T05:56:23.356Z,49.80
2018-12-09T05:57:23.435Z,31.00
2018-12-09T05:58:23.521Z,28.50
2018-12-09T05:59:23.847Z,19.30
2018-12-09T06:00:23.968Z,13.30
2018-12-09T06:01:24.004Z,11.30
2018-12-09T06:02:24.056Z,10.20
2018-12-09T06:03:24.191Z,9.80
2018-12-09T06:04:24.441Z,6.50
2018-12-09T06:05:24.944Z,7.40
2018-12-09T06:06:24.709Z,8.50
2018-12-09T06:07:24.978Z,7.70
2018-12-09T06:08:25.258Z,5.90
2018-12-09T06:09:25.610Z,5.90
2018-12-09T06:10:26.149Z,6.50
2018-12-09T06:11:26.135Z,6.30
2018-12-09T06:12:26.392Z,6.40
2018-12-09T06:13:26.840Z,4.90
2018-12-09T06:14:27.100Z,4.60
2018-12-09T06:15:27.365Z,3.50
2018-12-09T06:16:27.809Z,4.50
2018-12-09T06:17:28.085Z,3.80
2018-12-09T06:18:28.381Z,2.10
2018-12-09T06:19:28.734Z,3.70
2018-12-09T06:20:29.193Z,6.80
2018-12-09T06:21:29.272Z,2.70
2018-12-09T06:22:29.519Z,5.70
2018-12-09T06:23:29.787Z,5.40
2018-12-09T06:24:30.077Z,3.30
2018-12-09T06:25:30.392Z,3.80
2018-12-09T06:26:30.657Z,6.00
2018-12-09T06:27:30.951Z,4.20
2018-12-09T06:28:31.219Z,3.50
2018-12-09T06:29:31.538Z,2.60
2018-12-09T06:30:31.864Z,4.90
2018-12-09T06:31:32.185Z,4.80
2018-12-09T06:32:32.448Z,4.60
2018-12-09T06:33:32.704Z,4.10
2018-12-09T06:34:33.082Z,4.90
2018-12-09T06:35:33.656Z,6.00
2018-12-09T06:36:33.779Z,4.70
2018-12-09T06:37:33.880Z,4.80
2018-12-09T06:38:33.976Z,6.00
2018-12-09T06:39:34.094Z,6.70
2018-12-09T06:40:34.263Z,5.90
2018-12-09T06:41:34.381Z,5.40
2018-12-09T06:42:34.490Z,5.70
2018-12-09T06:43:34.592Z,4.80
2018-12-09T06:44:34.716Z,3.70
2018-12-09T06:45:34.863Z,6.40
2018-12-09T06:46:35.029Z,4.80
2018-12-09T06:47:35.160Z,7.40
2018-12-09T06:48:35.330Z,7.60
2018-12-09T06:49:35.505Z,8.10
2018-12-09T06:50:35.698Z,5.00
2018-12-09T06:51:35.774Z,8.40
2018-12-09T06:52:35.915Z,3.50
2018-12-09T06:53:36.011Z,6.20
2018-12-09T06:54:36.279Z,5.60
2018-12-09T06:55:36.356Z,5.40
2018-12-09T06:56:36.453Z,7.20
2018-12-09T06:57:36.500Z,7.80
2018-12-09T06:58:36.557Z,6.10
2018-12-09T06:59:36.694Z,4.80
2018-12-09T07:00:36.697Z,5.80
2018-12-09T07:01:36.858Z,9.40
2018-12-09T07:02:36.974Z,6.60
2018-12-09T07:03:37.076Z,7.90
2018-12-09T07:04:37.177Z,5.60
2018-12-09T07:05:37.265Z,9.20
2018-12-09T07:06:37.348Z,9.70
2018-12-09T07:07:37.424Z,9.90
2018-12-09T07:08:37.480Z,7.70
2018-12-09T07:09:37.536Z,7.30
2018-12-09T07:10:37.601Z,5.20
2018-12-09T07:11:37.671Z,11.20
2018-12-09T07:12:37.835Z,6.60
2018-12-09T07:13:37.797Z,4.70
2018-12-09T07:14:37.866Z,5.60
2018-12-09T07:15:37.941Z,5.30
2018-12-09T07:16:38.092Z,7.10
2018-12-09T07:17:38.080Z,6.70
2018-12-09T07:18:38.126Z,7.30
2018-12-09T07:19:38.188Z,8.00
2018-12-09T07:20:38.281Z,7.70
2018-12-09T07:21:38.346Z,5.40
2018-12-09T07:22:38.411Z,7.60
2018-12-09T07:23:38.472Z,8.90
2018-12-09T07:24:38.555Z,10.30
2018-12-09T07:25:38.626Z,6.80
2018-12-09T07:26:38.685Z,5.70
2018-12-09T07:27:38.772Z,5.00
2018-12-09T07:28:38.793Z,9.20
2018-12-09T07:29:38.837Z,8.30
2018-12-09T07:30:38.844Z,6.30
2018-12-09T07:31:38.913Z,11.10
2018-12-09T07:32:38.925Z,3.20
2018-12-09T07:33:38.983Z,5.70
2018-12-09T07:34:39.099Z,6.40
2018-12-09T07:35:39.173Z,4.50
2018-12-09T07:36:39.100Z,5.70
2018-12-09T07:37:39.372Z,5.10
2018-12-09T07:38:39.887Z,6.40
2018-12-09T07:39:39.648Z,9.80
2018-12-09T07:40:40.054Z,7.30
2018-12-09T07:41:40.333Z,4.80
2018-12-09T07:42:40.607Z,8.40
2018-12-09T07:43:40.867Z,6.40
2018-12-09T07:44:41.303Z,10.00
2018-12-09T07:45:41.653Z,5.60
2018-12-09T07:46:41.915Z,8.10
2018-12-09T07:47:42.200Z,4.10
2018-12-09T07:48:42.473Z,4.70
2018-12-09T07:49:42.738Z,5.70
2018-12-09T07:50:43.023Z,9.10
2018-12-09T07:51:43.300Z,5.70
2018-12-09T07:52:43.751Z,4.80
2018-12-09T07:53:44.025Z,6.80
2018-12-09T07:54:44.544Z,6.40
2018-12-09T07:55:44.785Z,7.80
2018-12-09T07:56:45.133Z,6.20
2018-12-09T07:57:45.387Z,9.20
2018-12-09T07:58:45.656Z,6.20
2018-12-09T07:59:45.929Z,5.00
2018-12-09T08:00:46.226Z,5.30
2018-12-09T08:02:46.519Z,7.70
2018-12-09T08:03:46.858Z,6.70
2018-12-09T08:04:47.135Z,5.70
2018-12-09T08:05:47.453Z,5.20
2018-12-09T08:06:47.839Z,8.60
2018-12-09T08:07:48.294Z,7.80
2018-12-09T08:08:48.886Z,6.60
2018-12-09T08:09:49.003Z,9.50
2018-12-09T08:10:49.117Z,7.40
2018-12-09T08:11:49.231Z,8.10
2018-12-09T08:12:49.355Z,6.40
2018-12-09T08:13:49.516Z,7.60
2018-12-09T08:14:49.650Z,5.20
2018-12-09T08:15:49.762Z,7.50
2018-12-09T08:16:49.872Z,7.50
2018-12-09T08:17:49.991Z,7.50
2018-12-09T08:18:50.142Z,8.80
2018-12-09T08:19:50.283Z,6.90
2018-12-09T08:20:50.445Z,9.60
2018-12-09T08:21:50.583Z,8.20
2018-12-09T08:22:50.758Z,6.20
2018-12-09T08:23:50.896Z,5.30
2018-12-09T08:24:51.030Z,7.70
2018-12-09T08:25:51.145Z,7.50
2018-12-09T08:26:51.221Z,6.70
2018-12-09T08:27:51.324Z,6.90
2018-12-09T08:28:51.385Z,5.60
2018-12-09T08:29:52.915Z,6.00
2018-12-09T08:30:51.520Z,4.80
2018-12-09T08:31:51.659Z,6.50
2018-12-09T08:32:51.901Z,8.80
2018-12-09T08:33:52.014Z,3.60
2018-12-09T08:34:52.122Z,8.00
2018-12-09T08:35:52.203Z,5.40
2018-12-09T08:36:52.293Z,6.20
2018-12-09T08:37:52.368Z,4.40
2018-12-09T08:38:52.444Z,7.90
2018-12-09T08:39:52.503Z,8.10
2018-12-09T08:40:52.564Z,10.00
2018-12-09T08:41:52.617Z,8.30
2018-12-09T08:42:52.687Z,6.00
2018-12-09T08:43:52.742Z,6.40
2018-12-09T08:44:52.802Z,7.00
2018-12-09T08:45:52.863Z,9.70
2018-12-09T08:46:52.931Z,6.70
2018-12-09T08:47:53.005Z,9.20
2018-12-09T08:48:53.061Z,5.80
2018-12-09T08:49:53.129Z,6.70
2018-12-09T08:50:53.204Z,6.00
2018-12-09T08:51:53.276Z,8.60
2018-12-09T08:52:53.368Z,6.60
2018-12-09T08:53:53.440Z,5.10
2018-12-09T08:54:53.514Z,7.50
2018-12-09T08:55:53.575Z,7.80
2018-12-09T08:56:53.647Z,6.90
2018-12-09T08:57:53.713Z,9.00
2018-12-09T08:58:53.793Z,6.40
2018-12-09T08:59:53.880Z,5.30
2018-12-09T09:00:54.071Z,6.00
2018-12-09T09:01:54.192Z,7.00
2018-12-09T09:02:54.276Z,5.90
2018-12-09T09:03:54.418Z,4.60
2018-12-09T09:04:54.517Z,5.00
2018-12-09T09:05:54.643Z,8.30
2018-12-09T09:06:54.667Z,7.00
2018-12-09T09:07:54.449Z,8.60
2018-12-09T09:08:54.765Z,6.80
2018-12-09T09:09:55.028Z,6.50
2018-12-09T09:10:55.402Z,5.10
2018-12-09T09:11:55.753Z,8.60
2018-12-09T09:12:56.217Z,6.60
2018-12-09T09:13:56.490Z,4.40
2018-12-09T09:14:56.744Z,3.80
2018-12-09T09:15:57.030Z,8.10
2018-12-09T09:16:57.336Z,6.00
2018-12-09T09:17:57.630Z,4.20
2018-12-09T09:18:57.917Z,5.90
2018-12-09T09:19:58.188Z,7.40
2018-12-09T09:20:58.466Z,7.70
2018-12-09T09:21:58.787Z,8.30
2018-12-09T09:22:59.301Z,5.80
2018-12-09T09:23:59.754Z,4.30
2018-12-09T09:25:00.068Z,8.20
2018-12-09T09:26:00.559Z,7.30
2018-12-09T09:27:00.997Z,5.10
2018-12-09T09:28:01.422Z,7.30
2018-12-09T09:29:02.000Z,6.60
2018-12-09T09:30:02.182Z,4.40
2018-12-09T09:31:02.178Z,5.60
2018-12-09T09:32:02.135Z,5.30
2018-12-09T09:33:02.706Z,3.70
2018-12-09T09:34:02.781Z,6.30
2018-12-09T09:35:02.816Z,4.60
2018-12-09T09:36:02.945Z,4.20
2018-12-09T09:37:03.073Z,5.50
2018-12-09T09:38:03.217Z,4.90
2018-12-09T09:39:03.376Z,3.00
2018-12-09T09:40:03.834Z,5.90
2018-12-09T09:41:04.191Z,4.90
2018-12-09T09:42:04.332Z,4.50
2018-12-09T09:43:04.410Z,2.40
2018-12-09T09:44:04.448Z,6.80
2018-12-09T09:45:04.522Z,5.10
2018-12-09T09:46:04.766Z,2.50
2018-12-09T09:47:04.877Z,4.00
2018-12-09T09:48:04.989Z,4.20
2018-12-09T09:49:05.045Z,5.50
2018-12-09T09:50:05.202Z,3.10
2018-12-09T09:51:05.332Z,4.60
2018-12-09T09:52:05.499Z,1.80
2018-12-09T09:53:05.628Z,2.80
2018-12-09T09:54:05.775Z,2.60
2018-12-09T09:55:05.895Z,4.20
2018-12-09T09:56:06.059Z,4.00
2018-12-09T09:57:06.175Z,3.70
2018-12-09T09:58:06.320Z,2.60
2018-12-09T09:59:06.492Z,3.40
2018-12-09T10:00:06.622Z,4.60
2018-12-09T10:01:06.699Z,3.10
2018-12-09T10:02:06.859Z,3.60
2018-12-09T10:03:06.939Z,3.20
2018-12-09T10:04:07.043Z,2.50
2018-12-09T10:05:07.044Z,2.50
2018-12-09T10:06:07.149Z,2.60
2018-12-09T10:07:07.115Z,3.20
2018-12-09T10:08:07.692Z,3.60
2018-12-09T10:09:07.623Z,3.30
2018-12-09T10:10:08.245Z,1.30
2018-12-09T10:11:08.382Z,3.10
2018-12-09T10:12:08.508Z,5.30
2018-12-09T10:13:08.297Z,3.80
2018-12-09T10:14:08.832Z,2.80
2018-12-09T10:15:08.848Z,2.60
2018-12-09T10:16:08.616Z,2.90
2018-12-09T10:17:08.892Z,2.50
2018-12-09T10:18:09.185Z,5.10
2018-12-09T10:19:09.791Z,4.00
2018-12-09T10:20:09.664Z,2.10
2018-12-09T10:21:10.243Z,3.20
2018-12-09T10:22:10.189Z,1.60
2018-12-09T10:23:10.468Z,1.40
2018-12-09T10:24:10.766Z,1.70
2018-12-09T10:25:11.218Z,3.20
2018-12-09T10:26:11.507Z,2.80
2018-12-09T10:27:11.837Z,2.00
2018-12-09T10:28:12.172Z,1.20
2018-12-09T10:29:12.484Z,1.70
2018-12-09T10:30:12.774Z,1.20
2018-12-09T10:31:13.130Z,2.70
2018-12-09T10:32:13.449Z,2.40
2018-12-09T10:33:13.739Z,1.40
2018-12-09T10:34:14.264Z,2.60
2018-12-09T10:35:14.816Z,1.30
2018-12-09T10:36:14.806Z,3.70
2018-12-09T10:37:15.112Z,1.60
2018-12-09T10:38:15.410Z,1.70
2018-12-09T10:39:15.702Z,2.00
2018-12-09T10:40:16.396Z,1.70
2018-12-09T10:41:16.194Z,0.80
2018-12-09T10:42:16.479Z,1.80
2018-12-09T10:43:16.880Z,2.50
2018-12-09T10:44:17.169Z,2.10
2018-12-09T10:45:17.660Z,1.30
2018-12-09T10:46:18.131Z,1.20
2018-12-09T10:47:18.091Z,1.80
2018-12-09T10:48:18.718Z,1.70
2018-12-09T10:49:18.840Z,1.60
2018-12-09T10:50:19.021Z,2.80
2018-12-09T10:51:19.155Z,1.50
2018-12-09T10:52:19.345Z,0.50
2018-12-09T10:53:19.467Z,2.90
2018-12-09T10:54:19.617Z,1.20
2018-12-09T10:55:19.794Z,1.90
2018-12-09T10:56:19.965Z,1.50
2018-12-09T10:57:20.109Z,2.10
2018-12-09T10:58:20.252Z,1.90
2018-12-09T10:59:20.406Z,1.00
2018-12-09T11:00:20.532Z,0.90
2018-12-09T11:01:20.843Z,3.10
2018-12-09T11:02:21.155Z,2.70
2018-12-09T11:03:21.217Z,0.70
2018-12-09T11:04:21.331Z,1.40
2018-12-09T11:05:21.405Z,0.70
2018-12-09T11:06:21.554Z,1.30
2018-12-09T11:07:21.631Z,1.70
2018-12-09T11:08:21.722Z,1.20
2018-12-09T11:09:21.865Z,1.10
2018-12-09T11:10:21.941Z,1.60
2018-12-09T11:11:22.076Z,1.10
2018-12-09T11:12:22.201Z,1.60
2018-12-09T11:13:22.311Z,1.50
2018-12-09T11:14:22.413Z,2.80
2018-12-09T11:15:22.503Z,1.40
2018-12-09T11:16:22.573Z,1.60
2018-12-09T11:17:22.646Z,2.00
2018-12-09T11:18:22.736Z,1.80
2018-12-09T11:19:22.795Z,1.20
2018-12-09T11:20:22.869Z,4.10
2018-12-09T11:21:30.397Z,3.70
2018-12-09T11:22:23.013Z,1.80
2018-12-09T11:23:23.118Z,2.60
2018-12-09T11:24:23.230Z,1.70
2018-12-09T11:25:23.333Z,2.40
2018-12-09T11:26:23.420Z,1.90
2018-12-09T11:27:23.498Z,1.50
2018-12-09T11:28:23.580Z,2.00
2018-12-09T11:29:23.737Z,4.10
2018-12-09T11:30:23.779Z,2.30
2018-12-09T11:31:23.742Z,2.10
2018-12-09T11:32:24.502Z,1.90
2018-12-09T11:33:24.541Z,1.40
2018-12-09T11:34:24.703Z,1.60
2018-12-09T11:35:25.111Z,2.10
2018-12-09T11:36:25.182Z,1.80
2018-12-09T11:37:25.524Z,2.40
2018-12-09T11:38:25.607Z,2.60
2018-12-09T11:39:25.901Z,1.70
2018-12-09T11:40:26.210Z,3.00
2018-12-09T11:41:26.280Z,2.10
2018-12-09T11:42:26.783Z,1.70
2018-12-09T11:43:27.065Z,2.90
2018-12-09T11:44:27.140Z,2.20
2018-12-09T11:45:27.420Z,2.30
2018-12-09T11:46:27.635Z,2.60
2018-12-09T11:47:27.989Z,3.00
2018-12-09T11:48:28.302Z,2.40
2018-12-09T11:49:28.584Z,1.10
2018-12-09T11:50:28.422Z,2.10
2018-12-09T11:51:28.734Z,2.80
2018-12-09T11:52:29.490Z,2.40
2018-12-09T11:53:29.278Z,3.00
2018-12-09T11:54:29.570Z,1.90
2018-12-09T11:55:29.855Z,1.80
2018-12-09T11:56:30.134Z,4.00
2018-12-09T11:57:30.517Z,1.90
2018-12-09T11:58:30.755Z,5.00
2018-12-09T11:59:30.531Z,1.90
2018-12-09T12:00:30.812Z,2.00
2018-12-09T12:01:31.117Z,2.90
2018-12-09T12:02:31.611Z,2.30
2018-12-09T12:03:31.886Z,2.40
2018-12-09T12:04:32.172Z,2.80
2018-12-09T12:05:32.468Z,3.10
2018-12-09T12:06:32.830Z,1.70
2018-12-09T12:07:33.362Z,1.20
2018-12-09T12:08:33.690Z,3.40
2018-12-09T12:09:33.797Z,0.70
2018-12-09T12:10:33.937Z,1.40
2018-12-09T12:11:34.024Z,2.30
2018-12-09T12:12:34.161Z,3.30
2018-12-09T12:13:34.428Z,1.90
2018-12-09T12:14:34.540Z,1.30
2018-12-09T12:15:34.724Z,2.80
2018-12-09T12:16:34.976Z,2.10
2018-12-09T12:17:35.176Z,3.90
2018-12-09T12:18:35.378Z,1.80
2018-12-09T12:19:35.572Z,1.10
2018-12-09T12:20:35.700Z,1.20
2018-12-09T12:21:35.906Z,1.20
2018-12-09T12:22:35.961Z,1.10
2018-12-09T12:23:36.249Z,1.20
2018-12-09T12:24:36.331Z,2.20
2018-12-09T12:25:36.400Z,1.30
2018-12-09T12:27:36.557Z,1.20
2018-12-09T12:28:36.835Z,1.40
2018-12-09T12:30:36.961Z,1.70
2018-12-09T12:31:37.121Z,1.80
2018-12-09T12:32:37.222Z,0.80
2018-12-09T12:33:37.356Z,2.40
2018-12-09T12:34:37.469Z,0.90
2018-12-09T12:35:37.560Z,2.20
2018-12-09T12:36:37.650Z,1.40
2018-12-09T12:37:37.827Z,1.00
2018-12-09T12:38:37.962Z,1.70
2018-12-09T12:39:38.054Z,0.60
2018-12-09T12:40:38.156Z,0.60
2018-12-09T12:41:38.285Z,1.40
2018-12-09T12:42:38.369Z,1.90
2018-12-09T12:43:38.469Z,1.30
2018-12-09T12:44:38.622Z,1.00
2018-12-09T12:45:38.927Z,2.20
2018-12-09T12:46:38.988Z,0.70
2018-12-09T12:47:39.098Z,0.60
2018-12-09T12:48:39.131Z,1.30
2018-12-09T12:49:39.110Z,1.00
2018-12-09T12:50:39.417Z,1.40
2018-12-09T12:51:39.708Z,0.70
2018-12-09T12:52:40.219Z,0.70
2018-12-09T12:53:40.021Z,1.90
2018-12-09T12:54:40.269Z,2.00
2018-12-09T12:55:40.864Z,1.70
2018-12-09T12:56:40.868Z,0.80
2018-12-09T12:57:41.131Z,0.90
2018-12-09T12:58:41.456Z,1.30
2018-12-09T12:59:41.801Z,1.20
2018-12-09T13:00:42.442Z,1.40
2018-12-09T13:01:42.208Z,0.70
2018-12-09T13:02:42.617Z,1.20
2018-12-09T13:03:43.040Z,1.60
2018-12-09T13:04:43.471Z,1.10
2018-12-09T13:05:43.817Z,1.30
2018-12-09T13:06:44.082Z,1.00
2018-12-09T13:07:44.441Z,1.70
2018-12-09T13:08:44.846Z,1.50
2018-12-09T13:09:45.210Z,2.00
2018-12-09T13:10:45.603Z,2.40
2018-12-09T13:11:45.927Z,1.40
2018-12-09T13:12:46.445Z,2.80
2018-12-09T13:13:46.704Z,1.90
2018-12-09T13:14:47.155Z,1.40
2018-12-09T13:15:47.560Z,2.00
2018-12-09T13:16:47.844Z,1.60
2018-12-09T13:17:48.404Z,1.90
2018-12-09T13:18:48.486Z,2.80
2018-12-09T13:19:48.652Z,2.80
2018-12-09T13:20:48.709Z,1.40
2018-12-09T13:21:48.832Z,1.80
2018-12-09T13:22:49.009Z,2.80
2018-12-09T13:23:49.156Z,1.70
2018-12-09T13:24:49.302Z,1.70
2018-12-09T13:25:49.500Z,1.50
2018-12-09T13:26:49.769Z,2.90
2018-12-09T13:27:49.906Z,2.10
2018-12-09T13:28:50.256Z,1.50
2018-12-09T13:29:50.384Z,3.70
2018-12-09T13:30:50.568Z,3.80
2018-12-09T13:31:50.858Z,1.40